Time;durP1;ratioP1;P1;durP2;ratioP2;P2;SDS_P1;SDS_P2;PMS_P1;PMS_P2;Temp;Humidity;BMP_temperature;BMP_pressure;BME280_temperature;BME280_humidity;BME280_pressure;Samples;Min_cycle;Max_cycle;Signal;HPM_P1;HPM_P2
2022/12/31 00:04:45;;;;;;;;;47.00;38.00;;;;;10.66;97.44;99928.78;5101322;27;45425;-76
2022/12/31 00:07:11;;;;;;;;;37.00;33.00;;;;;10.67;97.57;99925.25;5085927;27;45785;-76
2022/12/31 00:09:36;;;;;;;;;44.67;37.00;;;;;10.66;97.33;99920.88;5079018;27;45419;-76
2022/12/31 00:12:02;;;;;;;;;42.00;36.33;;;;;10.65;97.46;99927.94;5089530;27;45290;-76
2022/12/31 00:14:27;;;;;;;;;37.67;33.33;;;;;10.65;97.46;99919.16;5087227;27;45421;-76
2022/12/31 00:16:52;;;;;;;;;45.00;36.00;;;;;10.65;97.54;99925.28;5091084;27;45386;-76
2022/12/31 00:19:18;;;;;;;;;41.00;35.67;;;;;10.63;97.33;99921.81;5090453;27;45297;-77
2022/12/31 00:21:43;;;;;;;;;33.00;32.00;;;;;10.62;97.48;99917.47;5089119;27;45454;-76
2022/12/31 00:24:10;;;;;;;;;37.00;34.00;;;;;10.59;97.49;99914.91;5089555;27;46171;-76
2022/12/31 00:26:36;;;;;;;;;38.33;33.67;;;;;10.58;97.22;99923.72;5090974;27;45322;-77
2022/12/31 00:29:02;;;;;;;;;39.67;35.00;;;;;10.58;97.50;99926.34;5093658;27;45363;-76
2022/12/31 00:31:31;;;;;;;;;44.67;36.00;;;;;10.58;97.67;99925.50;5086353;27;45673;-76
2022/12/31 00:33:57;;;;;;;;;47.00;39.00;;;;;10.58;97.74;99920.22;5080921;27;46133;-76
2022/12/31 00:36:36;;;;;;;;;39.33;34.00;;;;;10.58;97.28;99921.09;5087068;27;45325;-77
2022/12/31 00:39:04;;;;;;;;;42.00;35.00;;;;;10.59;97.63;99924.59;5086849;27;45612;-76
2022/12/31 00:41:30;;;;;;;;;34.67;32.33;;;;;10.58;97.79;99917.56;5081984;27;45447;-75
2022/12/31 00:43:56;;;;;;;;;42.33;36.67;;;;;10.56;97.84;99895.69;5088318;27;47191;-76
2022/12/31 00:46:22;;;;;;;;;37.00;34.67;;;;;10.56;97.84;99903.59;5084559;27;45409;-76
2022/12/31 00:48:48;;;;;;;;;39.33;35.33;;;;;10.56;97.96;99914.97;5082268;27;45566;-76
2022/12/31 00:51:16;;;;;;;;;44.00;35.67;;;;;10.56;97.92;99914.97;5089946;27;45436;-76
2022/12/31 00:53:41;;;;;;;;;42.00;36.33;;;;;10.57;97.82;99913.22;5082372;27;46625;-77
2022/12/31 00:56:13;;;;;;;;;41.00;35.33;;;;;10.56;97.95;99908.88;5089498;27;45523;-76
2022/12/31 00:58:39;;;;;;;;;40.00;34.00;;;;;10.56;97.98;99908.88;5084631;27;45408;-76
2022/12/31 01:01:25;;;;;;;;;42.00;35.33;;;;;10.55;97.92;99909.78;5089955;27;45466;-76
2022/12/31 01:03:54;;;;;;;;;46.00;34.33;;;;;10.54;97.92;99915.97;5083261;27;46698;-76
2022/12/31 01:06:19;;;;;;;;;4.33;0.00;;;;;10.52;98.25;99910.72;5066481;28;45423;-76
2022/12/31 01:08:48;;;;;;;;;39.00;33.67;;;;;10.51;98.08;99910.75;5074487;28;45525;-76
2022/12/31 01:11:21;;;;;;;;;34.67;31.67;;;;;10.54;98.20;99906.28;5075575;27;45635;-77
2022/12/31 01:14:08;;;;;;;;;35.67;32.00;;;;;10.54;98.15;99906.28;5073847;27;45613;-76
2022/12/31 01:16:45;;;;;;;;;28.67;27.00;;;;;10.56;98.06;99903.59;5069838;28;45454;-77
2022/12/31 01:19:16;;;;;;;;;34.00;29.33;;;;;10.56;98.03;99906.25;5075975;27;45415;-76
2022/12/31 01:21:43;;;;;;;;;26.00;25.67;;;;;10.59;97.98;99911.41;5074623;28;45503;-76
2022/12/31 01:24:10;;;;;;;;;30.00;27.33;;;;;10.60;97.98;99905.22;5072230;27;45401;-76
2022/12/31 01:26:36;;;;;;;;;39.00;35.00;;;;;10.61;98.00;99913.09;5068229;28;45436;-76
2022/12/31 01:29:03;;;;;;;;;28.33;28.33;;;;;10.62;97.88;99913.97;5065082;27;45589;-76
2022/12/31 01:31:29;;;;;;;;;32.00;29.00;;;;;10.64;98.15;99909.50;5071844;28;45439;-77
2022/12/31 01:33:54;;;;;;;;;33.00;29.00;;;;;10.64;97.70;99920.94;5068624;28;46273;-76
2022/12/31 01:36:23;;;;;;;;;32.00;30.00;;;;;10.65;97.75;99925.28;5074870;28;45435;-76
2022/12/31 01:38:49;;;;;;;;;33.00;30.33;;;;;10.67;97.65;99926.13;5074114;28;45393;-76
2022/12/31 01:41:18;;;;;;;;;32.00;29.00;;;;;10.67;97.58;99918.22;5072297;28;45521;-77
2022/12/31 01:43:48;;;;;;;;;36.33;31.67;;;;;10.68;97.67;99916.44;5075195;28;46204;-76
2022/12/31 01:46:41;;;;;;;;;41.00;34.67;;;;;10.69;97.61;99924.31;5073855;28;45426;-77
2022/12/31 01:49:35;;;;;;;;;33.00;29.00;;;;;10.71;97.39;99924.28;5074252;27;45418;-76
2022/12/31 01:52:17;;;;;;;;;34.00;32.00;;;;;10.72;97.63;99932.13;5073747;27;45410;-77
2022/12/31 01:54:48;;;;;;;;;35.67;31.67;;;;;10.73;97.44;99923.28;5070947;28;45512;-76
2022/12/31 01:57:15;;;;;;;;;33.67;29.67;;;;;10.75;97.38;99929.38;5070150;27;45440;-76
2022/12/31 01:59:42;;;;;;;;;29.33;29.33;;;;;10.76;97.53;99925.84;5075204;27;45463;-76
2022/12/31 02:02:07;;;;;;;;;27.33;27.00;;;;;10.78;97.30;99934.59;5075341;27;45579;-76
2022/12/31 02:04:33;;;;;;;;;28.33;26.00;;;;;10.78;97.57;99931.94;5074782;27;46176;-76
2022/12/31 02:07:05;;;;;;;;;24.00;23.33;;;;;10.81;97.49;99931.88;5072040;27;45399;-77
2022/12/31 02:09:32;;;;;;;;;25.67;25.33;;;;;10.81;97.47;99926.59;5074112;28;45457;-76
2022/12/31 02:11:58;;;;;;;;;30.33;29.33;;;;;10.82;97.49;99932.75;5074807;28;45661;-76
2022/12/31 02:14:32;;;;;;;;;37.67;31.00;;;;;10.82;97.22;99927.47;5066922;27;45600;-76
2022/12/31 02:17:08;;;;;;;;;34.00;29.33;;;;;10.81;97.10;99926.59;5073003;28;45495;-76
2022/12/31 02:20:11;;;;;;;;;35.00;31.00;;;;;10.81;97.27;99928.38;5072233;27;45418;-76
2022/12/31 02:23:01;;;;;;;;;36.33;31.33;;;;;10.79;97.21;99943.38;5072414;27;45584;-76
2022/12/31 02:25:27;;;;;;;;;37.67;34.33;;;;;10.78;97.15;99931.94;5072496;28;46678;-76
2022/12/31 02:27:55;;;;;;;;;32.67;31.67;;;;;10.77;97.33;99929.34;5075010;27;45544;-76
2022/12/31 02:30:23;;;;;;;;;27.67;25.67;;;;;10.74;97.28;99927.66;5068473;27;45379;-76
2022/12/31 02:33:10;;;;;;;;;35.67;29.67;;;;;10.73;97.29;99919.78;5066186;27;45545;-76
2022/12/31 02:35:58;;;;;;;;;34.33;32.00;;;;;10.71;97.69;99921.63;5063945;28;47211;-76
2022/12/31 02:38:39;;;;;;;;;28.67;28.33;;;;;10.69;97.63;99926.09;5078575;27;46049;-76
2022/12/31 02:41:05;;;;;;;;;28.33;27.33;;;;;10.67;97.43;99927.88;5067256;27;45407;-76
2022/12/31 02:43:30;;;;;;;;;37.67;32.00;;;;;10.66;97.52;99918.25;5072138;27;45706;-76
2022/12/31 02:46:21;;;;;;;;;34.67;28.67;;;;;10.64;97.66;99923.56;5074921;27;45893;-76
2022/12/31 02:48:46;;;;;;;;;26.67;21.00;;;;;10.62;97.45;99916.59;5073661;28;45346;-76
2022/12/31 02:51:15;;;;;;;;;29.33;28.00;;;;;10.61;97.67;99917.50;5069009;27;45518;-76
2022/12/31 02:53:52;;;;;;;;;34.67;32.33;;;;;10.59;97.42;99906.13;5070955;28;45521;-76
2022/12/31 02:56:47;;;;;;;;;40.33;32.67;;;;;10.57;97.73;99911.44;5078977;27;46670;-76
2022/12/31 03:02:14;;;;;;;;;39.00;32.67;;;;;10.53;97.81;99915.09;5073479;28;45451;-76
2022/12/31 03:04:53;;;;;;;;;37.00;33.33;;;;;10.51;97.93;99918.66;5068817;27;45514;-76
2022/12/31 03:07:31;;;;;;;;;35.33;32.67;;;;;10.47;97.87;99916.09;5068654;28;45703;-76
2022/12/31 03:09:58;;;;;;;;;38.33;30.33;;;;;10.47;97.83;99915.25;5068710;28;45372;-76
2022/12/31 03:12:47;;;;;;;;;40.00;35.67;;;;;10.45;97.88;99910.00;5074617;27;45511;-75
2022/12/31 03:15:19;;;;;;;;;36.67;32.33;;;;;10.43;97.99;99906.53;5074286;28;45422;-76
2022/12/31 03:17:52;;;;;;;;;36.67;32.00;;;;;10.42;98.01;99899.53;5067964;28;46010;-76
2022/12/31 03:23:06;;;;;;;;;37.33;32.67;;;;;10.40;98.14;99897.84;5065788;28;45531;-76
2022/12/31 03:25:40;;;;;;;;;38.33;34.33;;;;;10.39;98.29;99906.69;5084001;27;45532;-76
2022/12/31 03:28:08;;;;;;;;;31.00;28.33;;;;;10.37;98.21;99896.19;5072648;27;46481;-75
2022/12/31 03:30:35;;;;;;;;;34.00;32.33;;;;;10.39;98.41;99898.78;5085568;27;45392;-76
2022/12/31 03:33:02;;;;;;;;;34.67;32.00;;;;;10.38;98.33;99897.91;5072686;27;45300;-76
2022/12/31 03:35:30;;;;;;;;;30.67;28.33;;;;;10.36;98.32;99902.38;5066735;27;45546;-76
2022/12/31 03:37:56;;;;;;;;;30.33;28.00;;;;;10.35;98.25;99905.03;5086971;27;46792;-76
2022/12/31 03:40:24;;;;;;;;;35.00;31.00;;;;;10.33;98.38;99906.84;5068238;27;45535;-76
2022/12/31 03:42:49;;;;;;;;;31.33;31.00;;;;;10.32;98.35;99910.38;5069820;28;45374;-76
2022/12/31 03:45:15;;;;;;;;;32.00;30.33;;;;;10.33;98.87;99912.97;5066677;27;45384;-76
2022/12/31 03:47:41;;;;;;;;;32.67;27.00;;;;;10.34;98.31;99904.16;5072313;27;46539;-76
2022/12/31 03:50:08;;;;;;;;;24.33;24.33;;;;;10.34;98.34;99906.81;5067162;28;45392;-76
2022/12/31 03:52:34;;;;;;;;;30.33;28.00;;;;;10.34;98.33;99908.56;5068691;28;45385;-76
2022/12/31 03:55:03;;;;;;;;;29.33;29.00;;;;;10.34;98.44;99900.66;5067264;28;45627;-76
2022/12/31 03:57:28;;;;;;;;;31.67;28.33;;;;;10.33;98.52;99899.81;5063229;28;46329;-76
2022/12/31 03:59:54;;;;;;;;;29.67;27.00;;;;;10.33;98.46;99902.44;5079679;27;45583;-76
2022/12/31 04:02:20;;;;;;;;;29.00;27.33;;;;;10.30;98.36;99902.50;5072462;28;45336;-76
2022/12/31 04:04:45;;;;;;;;;36.00;32.33;;;;;10.30;98.40;99902.50;5069446;28;45518;-76
2022/12/31 04:07:10;;;;;;;;;27.67;26.33;;;;;10.29;98.32;99905.19;5073503;27;46089;-76
2022/12/31 04:09:36;;;;;;;;;31.67;31.67;;;;;10.27;98.48;99899.97;5069039;27;45441;-75
2022/12/31 04:12:01;;;;;;;;;37.33;30.67;;;;;10.28;98.39;99895.56;5059226;27;46157;-76
2022/12/31 04:14:26;;;;;;;;;29.00;25.00;;;;;10.28;98.48;99890.28;5071000;27;45473;-76
2022/12/31 04:16:52;;;;;;;;;34.00;27.67;;;;;10.27;98.61;99896.44;5071837;27;45376;-76
2022/12/31 04:19:17;;;;;;;;;31.33;28.00;;;;;10.25;98.45;99893.00;5068742;27;45506;-76
2022/12/31 04:21:43;;;;;;;;;32.00;29.00;;;;;10.24;98.60;99901.81;5073595;28;45409;-76
2022/12/31 04:24:08;;;;;;;;;35.67;32.00;;;;;10.21;98.88;99897.50;5072007;28;45480;-76
2022/12/31 04:26:34;;;;;;;;;31.00;31.00;;;;;10.19;98.83;99891.41;5072166;27;47400;-76
2022/12/31 04:29:00;;;;;;;;;37.67;34.33;;;;;10.17;98.88;99893.19;5071620;27;45416;-76
2022/12/31 04:31:25;;;;;;;;;33.00;30.33;;;;;10.17;98.59;99893.19;5072271;27;45578;-76
2022/12/31 04:33:51;;;;;;;;;34.33;32.33;;;;;10.16;98.74;99891.44;5068726;27;45501;-76
2022/12/31 04:36:16;;;;;;;;;27.00;25.33;;;;;10.16;98.78;99894.06;5072894;27;45428;-76
2022/12/31 04:38:42;;;;;;;;;27.00;26.33;;;;;10.15;98.86;99901.13;5062080;27;45416;-76
2022/12/31 04:41:16;;;;;;;;;27.00;27.00;;;;;10.18;99.10;99910.72;5069642;28;45358;-76
2022/12/31 04:43:55;;;;;;;;;32.00;27.00;;;;;10.19;99.03;99903.72;5075389;27;45514;-76
2022/12/31 04:46:25;;;;;;;;;29.67;26.33;;;;;10.20;99.00;99908.06;5059584;28;45616;-76
2022/12/31 04:48:51;;;;;;;;;34.33;29.33;;;;;10.22;99.00;99907.09;5069307;28;45586;-76
2022/12/31 04:51:17;;;;;;;;;30.33;29.33;;;;;10.23;99.12;99916.75;5067320;28;45435;-76
2022/12/31 04:53:42;;;;;;;;;27.00;23.25;;;;;10.21;98.92;99915.94;5071865;28;45640;-76
2022/12/31 04:56:08;;;;;;;;;27.67;23.67;;;;;10.22;98.96;99911.53;5074148;27;46300;-76
2022/12/31 04:58:34;;;;;;;;;25.67;25.67;;;;;10.21;98.93;99913.31;5075197;27;45609;-76
2022/12/31 05:01:00;;;;;;;;;25.33;24.33;;;;;10.22;98.92;99912.38;5077119;27;45323;-76
2022/12/31 05:03:26;;;;;;;;;28.33;26.00;;;;;10.22;98.75;99907.09;5076394;28;45532;-76
2022/12/31 05:05:53;;;;;;;;;26.33;26.33;;;;;10.23;98.75;99910.59;5066114;28;46484;-75
2022/12/31 05:08:19;;;;;;;;;32.33;27.33;;;;;10.20;98.99;99903.69;5074391;28;45479;-76
2022/12/31 05:10:48;;;;;;;;;27.33;26.67;;;;;10.18;98.74;99908.09;5070801;28;45364;-76
2022/12/31 05:13:14;;;;;;;;;28.00;25.33;;;;;10.14;98.96;99911.69;5073749;27;45430;-77
2022/12/31 05:15:40;;;;;;;;;27.00;26.67;;;;;10.12;98.99;99905.59;5076537;27;46349;-75
2022/12/31 05:18:07;;;;;;;;;26.33;25.33;;;;;10.10;98.78;99910.91;5072843;27;45371;-76
2022/12/31 05:20:33;;;;;;;;;30.00;27.33;;;;;10.07;98.85;99900.44;5071500;28;45638;-76
2022/12/31 05:22:58;;;;;;;;;32.00;29.33;;;;;10.05;98.83;99904.88;5074683;28;45500;-76
2022/12/31 05:25:24;;;;;;;;;29.00;27.67;;;;;10.02;98.77;99904.97;5075384;27;46183;-76
2022/12/31 05:27:49;;;;;;;;;28.33;26.67;;;;;10.01;98.85;99889.22;5074822;27;45470;-76
2022/12/31 05:30:17;;;;;;;;;32.33;31.33;;;;;10.01;98.94;99911.16;5071761;27;45553;-76
2022/12/31 05:32:43;;;;;;;;;38.67;32.33;;;;;9.99;99.20;99905.03;5068752;28;45332;-76
2022/12/31 05:35:08;;;;;;;;;35.33;32.00;;;;;9.98;99.18;99902.44;5072616;28;46463;-76
2022/12/31 05:37:34;;;;;;;;;34.33;29.67;;;;;9.96;99.64;99910.38;5069005;28;45530;-76
2022/12/31 05:40:00;;;;;;;;;31.00;30.00;;;;;9.93;99.45;99901.69;5075796;27;45402;-76
2022/12/31 05:42:25;;;;;;;;;31.67;30.67;;;;;9.92;99.51;99910.50;5075929;27;45431;-76
2022/12/31 05:44:51;;;;;;;;;30.33;30.00;;;;;9.91;99.43;99912.25;5074466;27;46556;-76
2022/12/31 05:47:16;;;;;;;;;27.33;26.67;;;;;9.92;99.84;99907.84;5074153;27;45367;-76
2022/12/31 05:49:42;;;;;;;;;31.00;28.67;;;;;9.91;99.69;99906.13;5067475;27;45454;-76
2022/12/31 05:52:08;;;;;;;;;28.67;27.67;;;;;9.91;99.67;99912.25;5071256;27;45429;-75
2022/12/31 05:54:33;;;;;;;;;32.00;28.67;;;;;9.91;99.67;99914.03;5067950;28;45507;-76
2022/12/31 05:56:59;;;;;;;;;34.00;31.00;;;;;9.91;99.58;99921.94;5070244;28;45436;-76
2022/12/31 05:59:24;;;;;;;;;31.00;27.33;;;;;9.89;99.65;99916.69;5075586;28;45734;-76
2022/12/31 06:01:50;;;;;;;;;31.67;28.67;;;;;9.89;99.46;99916.69;5075310;27;45544;-76
2022/12/31 06:04:15;;;;;;;;;27.67;26.00;;;;;9.87;99.33;99902.72;5070503;27;47156;-76
2022/12/31 06:06:41;;;;;;;;;32.00;28.67;;;;;9.83;99.77;99911.59;5069623;28;45541;-76
2022/12/31 06:09:06;;;;;;;;;27.33;25.00;;;;;9.81;99.76;99918.66;5072667;27;45403;-76
2022/12/31 06:11:32;;;;;;;;;20.67;16.00;;;;;9.80;100.00;99919.56;5075184;27;45496;-76
2022/12/31 06:13:57;;;;;;;;;27.33;25.33;;;;;9.75;100.00;99913.53;5073459;27;46558;-76
2022/12/31 06:16:23;;;;;;;;;27.00;25.00;;;;;9.74;99.96;99906.53;5059381;28;45520;-75
2022/12/31 06:18:49;;;;;;;;;26.67;25.00;;;;;9.72;100.00;99906.56;5069380;27;45395;-76
2022/12/31 06:21:16;;;;;;;;;22.67;21.67;;;;;9.68;100.00;99910.19;5063396;27;45287;-76
2022/12/31 06:23:41;;;;;;;;;22.33;19.33;;;;;9.65;100.00;99904.13;5068817;27;46763;-76
2022/12/31 06:26:07;;;;;;;;;27.67;26.33;;;;;9.65;100.00;99909.41;5072868;27;45388;-76
2022/12/31 06:28:33;;;;;;;;;24.67;24.67;;;;;9.63;100.00;99909.44;5072387;28;45419;-76
2022/12/31 06:31:00;;;;;;;;;30.33;24.00;;;;;9.62;100.00;99909.47;5066645;27;45379;-76
2022/12/31 06:33:25;;;;;;;;;27.00;25.67;;;;;9.61;100.00;99907.75;5073878;28;45893;-75
2022/12/31 06:35:59;;;;;;;;;27.33;22.00;;;;;9.60;100.00;99916.53;5066669;27;45464;-76
2022/12/31 06:38:26;;;;;;;;;23.75;21.25;;;;;9.60;100.00;99916.53;5062327;28;45389;-76
2022/12/31 06:40:51;;;;;;;;;28.33;23.33;;;;;9.60;100.00;99916.53;5074040;28;45406;-76
2022/12/31 06:43:17;;;;;;;;;19.33;17.00;;;;;9.58;100.00;99913.94;5073024;28;46144;-76
2022/12/31 06:45:43;;;;;;;;;21.00;17.67;;;;;9.56;100.00;99926.25;5080480;27;45556;-76
2022/12/31 06:48:08;;;;;;;;;31.00;25.67;;;;;9.58;100.00;99918.34;5073036;27;45521;-76
2022/12/31 06:50:34;;;;;;;;;21.00;19.00;;;;;9.63;100.00;99927.88;5087670;27;45497;-80
2022/12/31 06:52:59;;;;;;;;;22.33;22.00;;;;;9.67;100.00;99928.66;5062441;28;46388;-80
2022/12/31 06:55:25;;;;;;;;;22.67;22.00;;;;;9.70;100.00;99933.88;5069037;28;45336;-80
2022/12/31 06:57:51;;;;;;;;;27.33;24.67;;;;;9.72;100.00;99934.66;5056110;28;45333;-80
2022/12/31 07:00:17;;;;;;;;;25.00;21.67;;;;;9.72;100.00;99934.66;5059447;28;45436;-80
2022/12/31 07:03:04;;;;;;;;;23.33;21.00;;;;;9.74;100.00;99935.50;5081288;27;47386;-79
2022/12/31 07:05:35;;;;;;;;;29.67;28.67;;;;;9.73;100.00;99936.41;5064535;28;45434;-79
2022/12/31 07:08:22;;;;;;;;;27.67;25.33;;;;;9.72;100.00;99937.31;5060140;28;45522;-80
2022/12/31 07:11:14;;;;;;;;;23.33;23.00;;;;;9.70;100.00;99931.25;5067679;28;45439;-80
2022/12/31 07:14:15;;;;;;;;;36.00;29.33;;;;;9.68;100.00;99925.13;5056429;28;45489;-79
2022/12/31 07:17:14;;;;;;;;;28.00;27.00;;;;;9.67;100.00;99920.78;5075667;27;45483;-80
2022/12/31 07:20:08;;;;;;;;;30.33;28.67;;;;;9.65;100.00;99919.94;5083072;27;45405;-80
2022/12/31 07:22:34;;;;;;;;;24.67;23.33;;;;;9.63;100.00;99924.38;5059482;28;45459;-80
2022/12/31 07:25:00;;;;;;;;;28.00;24.00;;;;;9.63;100.00;99919.09;5072635;28;47654;-80
2022/12/31 07:27:34;;;;;;;;;31.00;25.00;;;;;9.64;100.00;99921.69;5074923;28;45503;-80
2022/12/31 07:30:12;;;;;;;;;27.33;24.67;;;;;9.64;100.00;99926.09;5072617;28;45341;-80
2022/12/31 07:32:46;;;;;;;;;28.67;22.33;;;;;9.65;100.00;99935.72;5067631;27;45400;-79
2022/12/31 07:35:17;;;;;;;;;28.00;25.67;;;;;9.67;100.00;99920.78;5069058;28;45861;-81
2022/12/31 07:38:09;;;;;;;;;28.00;26.33;;;;;9.69;100.00;99918.97;5067217;28;45383;-80
2022/12/31 07:40:39;;;;;;;;;26.00;26.00;;;;;9.69;100.00;99925.09;5069065;28;45421;-80
2022/12/31 07:43:28;;;;;;;;;28.00;23.67;;;;;9.71;99.98;99923.31;5072840;27;45610;-80
2022/12/31 07:46:05;;;;;;;;;29.67;26.67;;;;;9.73;99.81;99925.88;5074773;28;46299;-80
2022/12/31 07:48:31;;;;;;;;;27.67;23.67;;;;;9.73;99.80;99929.38;5074113;27;45473;-80
2022/12/31 07:50:57;;;;;;;;;29.00;24.33;;;;;9.73;99.70;99929.38;5074249;28;45548;-80
2022/12/31 07:53:24;;;;;;;;;25.67;24.67;;;;;9.74;99.63;99930.25;5067024;28;45616;-80
2022/12/31 07:55:55;;;;;;;;;29.33;26.33;;;;;9.74;99.59;99925.84;5072824;28;46041;-80
2022/12/31 07:58:55;;;;;;;;;28.00;28.00;;;;;9.76;99.52;99925.81;5070089;27;45441;-80
2022/12/31 08:01:55;;;;;;;;;33.33;26.33;;;;;9.77;99.19;99924.91;5063964;27;45382;-80
2022/12/31 08:04:53;;;;;;;;;26.00;23.67;;;;;9.78;98.94;99932.78;5060013;28;45396;-80
2022/12/31 08:07:34;;;;;;;;;32.00;28.67;;;;;9.77;98.83;99927.53;5064599;28;46439;-81
2022/12/31 08:10:20;;;;;;;;;30.33;25.33;;;;;9.78;98.79;99918.72;5071365;27;45429;-81
2022/12/31 08:12:48;;;;;;;;;23.00;19.33;;;;;9.77;98.78;99917.88;5086992;27;45328;-81
2022/12/31 08:15:16;;;;;;;;;27.00;25.33;;;;;9.79;99.03;99920.47;5063789;28;45390;-81
2022/12/31 08:17:42;;;;;;;;;26.33;25.33;;;;;9.80;98.91;99916.94;5076899;27;45494;-80
2022/12/31 08:20:16;;;;;;;;;27.67;24.00;;;;;9.82;99.07;99919.53;5074387;28;45708;-80
2022/12/31 08:23:00;;;;;;;;;27.33;26.00;;;;;9.83;98.87;99913.38;5057592;28;45335;-80
2022/12/31 08:26:09;;;;;;;;;15.33;14.33;;;;;9.86;98.91;99914.16;5073888;27;45255;-80
2022/12/31 08:29:01;;;;;;;;;22.00;21.67;;;;;9.87;98.72;99915.91;5069740;28;46090;-80
2022/12/31 08:31:49;;;;;;;;;31.67;26.33;;;;;9.87;98.72;99913.25;5063824;28;45370;-80
2022/12/31 08:34:34;;;;;;;;;24.50;20.25;;;;;9.90;99.35;99904.41;5069680;27;45423;-80
2022/12/31 08:37:12;;;;;;;;;21.67;19.00;;;;;9.93;98.99;99907.81;5074979;27;45370;-80
2022/12/31 08:40:04;;;;;;;;;21.50;19.00;;;;;9.96;98.75;99905.13;5066022;28;48059;-81
2022/12/31 08:42:50;;;;;;;;;24.25;22.00;;;;;10.03;98.97;99897.94;5076000;28;45486;-81
2022/12/31 08:45:27;;;;;;;;;20.75;20.00;;;;;10.07;98.98;99889.91;5073295;28;45574;-82
2022/12/31 08:48:29;;;;;;;;;17.75;14.50;;;;;10.14;98.26;99885.34;5076092;28;45444;-71
2022/12/31 08:50:55;;;;;;;;;21.75;20.00;;;;;10.13;98.52;99894.16;5067513;28;47488;-73
2022/12/31 08:53:21;;;;;;;;;24.67;24.67;;;;;10.16;98.51;99886.19;5075167;27;45384;-73
2022/12/31 08:55:51;;;;;;;;;21.33;20.00;;;;;10.20;98.23;99884.38;5075352;28;45530;-73
2022/12/31 08:58:35;;;;;;;;;24.00;23.67;;;;;10.26;98.11;99889.44;5076236;27;45488;-73
2022/12/31 09:01:02;;;;;;;;;21.33;19.67;;;;;10.29;98.05;99894.66;5074382;28;46464;-73
2022/12/31 09:03:34;;;;;;;;;30.00;26.00;;;;;10.34;97.54;99890.13;5069599;27;45359;-73
2022/12/31 09:06:13;;;;;;;;;26.67;22.00;;;;;10.35;97.50;99892.72;5068773;27;45450;-64
2022/12/31 09:08:50;;;;;;;;;26.00;25.33;;;;;10.41;97.45;99902.22;5069651;28;45652;-70
2022/12/31 09:11:44;;;;;;;;;24.50;23.50;;;;;10.46;97.35;99885.38;5068986;28;46334;-70
2022/12/31 09:14:35;;;;;;;;;27.33;23.00;;;;;10.53;97.08;99887.88;5062085;27;45363;-72
2022/12/31 09:17:19;;;;;;;;;23.00;21.00;;;;;10.57;96.87;99890.34;5085522;27;45536;-72
2022/12/31 09:19:45;;;;;;;;;13.00;11.00;;;;;10.63;97.21;99887.56;5072397;27;45498;-71
2022/12/31 09:22:10;;;;;;;;;28.33;25.00;;;;;10.72;96.69;99878.53;5065713;27;46968;-72
2022/12/31 09:24:36;;;;;;;;;21.50;19.75;;;;;10.79;96.71;99883.56;5072290;27;45516;-70
2022/12/31 09:27:17;;;;;;;;;24.75;23.00;;;;;10.90;96.60;99887.66;5075533;27;45360;-72
2022/12/31 09:29:50;;;;;;;;;20.00;19.00;;;;;10.96;96.37;99885.72;5072500;28;45444;-70
2022/12/31 09:32:16;;;;;;;;;18.00;16.75;;;;;11.01;96.01;99883.81;5073869;27;46704;-71
2022/12/31 09:34:56;;;;;;;;;15.75;15.50;;;;;11.04;96.17;99875.81;5072025;28;45377;-71
2022/12/31 09:37:34;;;;;;;;;20.75;16.00;;;;;11.10;96.35;99878.25;5075476;28;45601;-71
2022/12/31 09:40:22;;;;;;;;;14.75;13.50;;;;;11.17;96.09;99876.31;5073835;27;45922;-71
2022/12/31 09:42:56;;;;;;;;;15.25;12.50;;;;;11.26;95.85;99864.59;5074053;28;45562;-73
2022/12/31 09:45:43;;;;;;;;;16.25;15.00;;;;;11.33;95.81;99869.63;5066568;27;45472;-73
2022/12/31 09:48:46;;;;;;;;;17.50;16.50;;;;;11.42;95.33;99861.41;5068759;27;45391;-72
2022/12/31 09:51:14;;;;;;;;;11.75;11.75;;;;;11.50;95.07;99858.53;5073796;28;45473;-73
2022/12/31 09:54:08;;;;;;;;;20.00;17.75;;;;;11.59;94.87;99860.00;5073420;28;47238;-72
2022/12/31 09:57:03;;;;;;;;;18.25;18.25;;;;;11.71;94.78;99864.91;5074720;27;45690;-72
2022/12/31 09:59:34;;;;;;;;;8.25;8.25;;;;;11.79;94.88;99850.56;5068261;28;45485;-72
2022/12/31 10:02:22;;;;;;;;;17.50;15.50;;;;;11.87;94.50;99863.53;5065671;27;45520;-71
2022/12/31 10:05:36;;;;;;;;;24.00;20.50;;;;;11.98;94.45;99865.78;5069561;28;45410;-71
2022/12/31 10:08:14;;;;;;;;;23.50;22.00;;;;;12.06;93.83;99872.56;5061222;27;45477;-71
2022/12/31 10:10:50;;;;;;;;;22.00;22.00;;;;;12.13;93.68;99875.84;5071288;28;45513;-71
2022/12/31 10:13:39;;;;;;;;;23.00;19.25;;;;;12.22;93.06;99867.63;5072616;28;45482;-72
2022/12/31 10:16:23;;;;;;;;;14.00;14.00;;;;;12.15;91.51;99871.38;5062517;28;45474;-62
2022/12/31 10:18:59;;;;;;;;;18.75;17.75;;;;;12.09;92.84;99867.16;5068089;28;45822;-62
2022/12/31 10:21:37;;;;;;;;;19.75;16.50;;;;;12.14;92.31;99872.28;5062317;28;45478;-75
2022/12/31 10:24:20;;;;;;;;;14.25;14.25;;;;;12.14;91.44;99861.72;5064978;28;45494;-76
2022/12/31 10:27:15;;;;;;;;;19.50;17.50;;;;;12.14;91.74;99859.06;5063621;28;46525;-76
2022/12/31 10:30:02;;;;;;;;;15.25;14.00;;;;;12.17;91.67;99851.03;5069743;27;45408;-75
2022/12/31 10:32:30;;;;;;;;;16.75;16.00;;;;;12.22;91.52;99844.69;5062055;28;45485;-72
2022/12/31 10:35:29;;;;;;;;;20.00;17.75;;;;;12.25;91.75;99856.91;5069166;27;45440;-73
2022/12/31 10:38:04;;;;;;;;;15.75;15.50;;;;;12.29;91.47;99842.66;5069053;27;45508;-73
2022/12/31 10:40:59;;;;;;;;;18.00;15.00;;;;;12.33;90.87;99846.94;5064235;28;45441;-71
2022/12/31 10:43:31;;;;;;;;;17.75;15.75;;;;;12.36;91.24;99836.25;5040924;28;45451;-72
2022/12/31 10:46:34;;;;;;;;;16.25;15.75;;;;;12.42;90.86;99829.88;5068518;28;45305;-71
2022/12/31 10:49:25;;;;;;;;;14.25;12.75;;;;;12.46;90.64;99834.13;5037605;28;46215;-71
2022/12/31 10:52:27;;;;;;;;;15.25;14.25;;;;;12.49;91.05;99837.53;5067127;28;45453;-72
2022/12/31 10:55:04;;;;;;;;;14.50;14.00;;;;;12.55;91.25;99824.09;5067763;28;45376;-67
2022/12/31 10:57:35;;;;;;;;;16.50;15.50;;;;;12.64;90.70;99832.59;5072946;28;45401;-69
2022/12/31 11:00:23;;;;;;;;;11.75;11.25;;;;;12.74;89.93;99808.38;5072333;27;45373;-64
2022/12/31 11:03:21;;;;;;;;;10.50;10.50;;;;;12.84;89.96;99801.81;5071686;27;45301;-69
2022/12/31 11:06:08;;;;;;;;;16.25;13.50;;;;;12.94;89.88;99816.41;5065072;28;45511;-68
2022/12/31 11:08:53;;;;;;;;;12.25;11.00;;;;;13.00;90.07;99790.63;5069581;27;45571;-68
2022/12/31 11:11:35;;;;;;;;;15.25;12.75;;;;;13.06;89.36;99788.63;5062943;28;46151;-67
2022/12/31 11:14:13;;;;;;;;;15.80;13.80;;;;;13.14;89.59;99796.25;5071832;27;45451;-67
2022/12/31 11:16:55;;;;;;;;;15.00;14.25;;;;;13.18;88.18;99761.69;5071401;28;45399;-68
2022/12/31 11:19:40;;;;;;;;;18.25;15.00;;;;;13.15;88.40;99780.34;5073255;27;45508;-67
2022/12/31 11:22:28;;;;;;;;;20.25;16.00;;;;;13.18;88.27;99755.53;5071378;28;45592;-67
2022/12/31 11:25:31;;;;;;;;;15.50;15.50;;;;;13.20;88.42;99777.50;5070436;28;45368;-68
2022/12/31 11:28:09;;;;;;;;;18.75;14.75;;;;;13.24;87.94;99750.81;5068120;27;45426;-67
2022/12/31 11:30:45;;;;;;;;;18.25;17.00;;;;;13.24;86.90;99747.31;5064659;28;45461;-67
2022/12/31 11:33:19;;;;;;;;;19.25;17.25;;;;;13.24;88.05;99763.19;5070655;28;46163;-67
2022/12/31 11:36:24;;;;;;;;;15.00;15.00;;;;;13.27;85.89;99728.66;5067380;27;45377;-67
2022/12/31 11:39:20;;;;;;;;;15.25;14.25;;;;;13.25;87.15;99744.59;5071850;28;45514;-67
2022/12/31 11:41:52;;;;;;;;;15.75;14.00;;;;;13.29;86.64;99742.72;5065788;28;45455;-67
2022/12/31 11:44:20;;;;;;;;;17.75;14.50;;;;;13.32;85.70;99731.13;5068076;27;46254;-69
2022/12/31 11:46:53;;;;;;;;;16.25;14.75;;;;;13.31;86.92;99746.16;5063760;28;45469;-69
2022/12/31 11:49:27;;;;;;;;;13.25;11.75;;;;;13.36;85.94;99720.34;5071538;28;45457;-69
2022/12/31 11:52:18;;;;;;;;;16.50;14.50;;;;;13.39;85.23;99730.81;5067913;27;45430;-65
2022/12/31 11:55:25;;;;;;;;;16.75;14.75;;;;;13.43;84.92;99728.88;5059287;28;46488;-65
2022/12/31 11:57:51;;;;;;;;;16.50;15.50;;;;;13.48;84.73;99729.56;5063613;28;45482;-63
2022/12/31 12:00:22;;;;;;;;;16.25;15.00;;;;;13.49;83.98;99728.63;5059319;28;45383;-65